Terminal Aerodrome Forecast
Issued by NWS

Home | Current Version | Previous Version | Text Only | Print | Product List | Glossary On
Versions: 1 2 3 4 5 6 7 8 9 10 11 12 13 14 15
000
FTUS42 KMHX 291100
TAFOAJ
TAF
KOAJ 291140Z 2912/3012 23005KT P6SM SCT050
     FM291800 13007KT P6SM BKN040
     FM300100 14003KT P6SM SCT040
     FM300800 00000KT 4SM BR SCT003
      AMD LTD TO CLD VIS AND WIND=

USA.gov is the U.S. government's official web portal to all federal, state and local government web resources and services.